Shin Puropan Maru — JG5508 — position and weather

sailwx.info

Track history (hours):
 
Tides and Currents Weather Stations Pressure Air Temp Water Temp Dewpoint Dewpoint Depression Visibility Wind Speed Wind Dir Waves Ship Positions

Shin Puropan Maru

Last reported at 2017-Dec-11 16:58 UTC. Time now 2017-Dec-13 09:17 UTC.
Position N 34°31' E 135°20'.

Length 66 m; draft 4.5 m.

Type: Ship (hazmat cat A). MMSI: 431100348.

Date/timePositionNaut miles runAvg speedWind from/ knotsBaromVisibWave heightAir tempDewpointWater temp
2017-Dec-11 16:58N 34°31' E 135°20'0 0.0
2017-Dec-11 16:25N 34°31' E 135°20'0 0.0
2017-Dec-11 15:58N 34°31' E 135°20'0 0.1
2017-Dec-11 15:28N 34°31' E 135°20'0 0.0
2017-Dec-11 14:58N 34°31' E 135°20'0 0.0
2017-Dec-11 14:28N 34°31' E 135°20'0 0.0
2017-Dec-11 13:58N 34°31' E 135°20'0 0.0
2017-Dec-11 13:28N 34°31' E 135°20'0 0.0
2017-Dec-11 12:58N 34°31' E 135°20'0 0.0
2017-Dec-11 12:28N 34°31' E 135°20'0 0.0
2017-Dec-11 11:58N 34°31' E 135°20'0 0.0
2017-Dec-11 11:25N 34°31' E 135°20'1 1.8
2017-Dec-11 11:00N 34°32' E 135°20'3 5.9
2017-Dec-11 10:30N 34°35' E 135°20'3 6.0
2017-Dec-11 10:00N 34°36' E 135°23'3 5.8
2017-Dec-11 09:30N 34°34' E 135°26'0 0.1
2017-Dec-11 09:00N 34°34' E 135°26'0 0.0
2017-Dec-11 08:30N 34°34' E 135°26'0 0.0
2017-Dec-11 08:00N 34°34' E 135°26'0 0.0
2017-Dec-11 07:30N 34°34' E 135°26'0 0.0
2017-Dec-11 07:00N 34°34' E 135°26'0 0.0
2017-Dec-11 06:30N 34°34' E 135°26'0 0.8
2017-Dec-11 06:00N 34°35' E 135°26'1 1.5
2017-Dec-11 05:30N 34°35' E 135°25'3 5.5
2017-Dec-11 05:00N 34°36' E 135°22'1 1.6
2017-Dec-11 04:30N 34°36' E 135°21'3 5.9
2017-Dec-11 04:00N 34°34' E 135°19'510.9
2017-Dec-11 03:30N 34°30' E 135°14'611.5
2017-Dec-11 03:00N 34°26' E 135°09'611.5
2017-Dec-11 02:30N 34°22' E 135°04'611.5
2017-Dec-11 02:00N 34°17' E 134°60'5 9.9
2017-Dec-11 01:30N 34°12' E 134°60'510.7
2017-Dec-11 01:00N 34°07' E 135°00'510.6
2017-Dec-11 00:30N 34°02' E 135°01'610.8
2017-Dec-10 23:58N 33°56' E 135°02'101 7.2
2017-Dec-10 09:52N 34°38' E 136°53'511.0
2017-Dec-10 09:27N 34°42' E 136°49'511.4
2017-Dec-10 09:00N 34°46' E 136°47'611.1
2017-Dec-10 08:30N 34°51' E 136°44'511.0
2017-Dec-10 08:00N 34°56' E 136°41'3 5.0
2017-Dec-10 07:29N 34°58' E 136°39'0 0.0
2017-Dec-10 06:59N 34°58' E 136°39'0 0.0
2017-Dec-10 06:05N 34°58' E 136°39'0 0.0
2017-Dec-10 05:59N 34°58' E 136°39'0 0.0
2017-Dec-10 05:23N 34°58' E 136°39'0 0.0
2017-Dec-10 04:47N 34°58' E 136°39'0 0.0
2017-Dec-10 04:29N 34°58' E 136°39'0 0.0
2017-Dec-10 03:59N 34°58' E 136°39'0 0.0
2017-Dec-10 03:30N 34°58' E 136°39'1 1.0
2017-Dec-10 02:58N 34°58' E 136°39'0 0.1
2017-Dec-10 02:28N 34°58' E 136°39'0 0.0
2017-Dec-10 01:58N 34°58' E 136°39'0 0.0
2017-Dec-10 01:28N 34°58' E 136°39'2 4.7
2017-Dec-10 01:00N 34°56' E 136°41'611.7
2017-Dec-10 00:30N 34°51' E 136°44'611.8
2017-Dec-10 00:00N 34°45' E 136°48'612.0
2017-Dec-09 23:30N 34°40' E 136°51'612.6
2017-Dec-09 23:00N 34°36' E 136°57'612.5
2017-Dec-09 22:30N 34°32' E 137°03'107 8.8
2017-Dec-09 10:20N 33°53' E 135°02'412.9
2017-Dec-09 10:00N 33°58' E 135°01'612.5
2017-Dec-09 09:30N 34°04' E 135°00'612.8
2017-Dec-09 09:00N 34°10' E 134°59'713.1
2017-Dec-09 08:30N 34°17' E 134°59'611.4
2017-Dec-09 08:00N 34°22' E 135°01'612.0
2017-Dec-09 07:30N 34°26' E 135°07'612.0
2017-Dec-09 07:00N 34°29' E 135°12'611.7
2017-Dec-09 06:30N 34°33' E 135°18'511.0
2017-Dec-09 06:00N 34°36' E 135°23'3 5.6
2017-Dec-09 05:29N 34°34' E 135°26'0 0.0
2017-Dec-09 04:59N 34°34' E 135°26'0 0.0
2017-Dec-09 04:29N 34°34' E 135°26'0 0.0
2017-Dec-09 03:56N 34°34' E 135°26'0 0.0
2017-Dec-09 03:31N 34°34' E 135°26'3 5.3
2017-Dec-09 03:01N 34°36' E 135°24'611.2
2017-Dec-09 02:30N 34°33' E 135°18'611.7
2017-Dec-09 02:00N 34°29' E 135°13'611.9
2017-Dec-09 01:30N 34°25' E 135°08'612.3
2017-Dec-09 01:00N 34°20' E 135°03'611.6
2017-Dec-09 00:30N 34°15' E 134°59'510.6
2017-Dec-09 00:00N 34°10' E 135°00'510.9
2017-Dec-08 23:31N 34°05' E 135°01'510.8
2017-Dec-08 23:00N 33°59' E 135°01'99 7.1
2017-Dec-08 08:58N 34°39' E 136°51'511.6
2017-Dec-08 08:30N 34°44' E 136°48'611.6
2017-Dec-08 08:01N 34°49' E 136°45'611.4
2017-Dec-08 07:31N 34°54' E 136°42'4 8.7
2017-Dec-08 07:00N 34°58' E 136°39'1 2.3
2017-Dec-08 06:28N 34°57' E 136°38'0 0.0
2017-Dec-08 05:58N 34°57' E 136°38'0 0.0
2017-Dec-08 05:28N 34°57' E 136°38'0 0.0
2017-Dec-08 04:58N 34°57' E 136°38'0 0.0
2017-Dec-08 04:28N 34°57' E 136°38'0 0.0
2017-Dec-08 03:58N 34°57' E 136°38'0 0.0
2017-Dec-08 03:28N 34°57' E 136°38'0 0.0
2017-Dec-08 02:58N 34°57' E 136°38'0 0.2
2017-Dec-08 02:30N 34°57' E 136°38'2 4.4
2017-Dec-08 02:01N 34°56' E 136°41'4 7.5
2017-Dec-08 01:31N 34°53' E 136°42'510.6
2017-Dec-08 01:00N 34°47' E 136°41'3 5.0
2017-Dec-08 00:30N 34°45' E 136°43'2 5.0
2017-Dec-08 00:00N 34°44' E 136°46'4 9.0
2017-Dec-07 23:31N 34°41' E 136°50'811.6
2017-Dec-07 22:47N 34°36' E 136°58'412.7
2017-Dec-07 22:30N 34°33' E 137°01'107 8.8
2017-Dec-07 10:22N 33°52' E 135°02'512.1
2017-Dec-07 09:58N 33°57' E 135°01'612.1
2017-Dec-07 09:31N 34°02' E 135°00'612.3
2017-Dec-07 09:00N 34°09' E 134°60'612.8
2017-Dec-07 08:31N 34°15' E 134°59'612.5
2017-Dec-07 08:01N 34°21' E 134°60'612.5
2017-Dec-07 07:30N 34°25' E 135°06'612.6
2017-Dec-07 07:01N 34°29' E 135°12'611.8
2017-Dec-07 06:30N 34°33' E 135°17'611.0
2017-Dec-07 06:00N 34°36' E 135°22'3 6.9
2017-Dec-07 05:30N 34°34' E 135°26'0 0.0
2017-Dec-07 04:59N 34°34' E 135°26'0 0.0
2017-Dec-07 04:29N 34°34' E 135°26'0 0.0
2017-Dec-07 03:59N 34°34' E 135°26'0 0.0
2017-Dec-07 03:27N 34°34' E 135°26'0 0.0
2017-Dec-07 02:59N 34°34' E 135°26'0 0.0
2017-Dec-07 02:30N 34°34' E 135°26'2 3.7
2017-Dec-07 02:01N 34°36' E 135°25'5 9.9
2017-Dec-07 01:30N 34°34' E 135°19'611.5
2017-Dec-07 01:00N 34°30' E 135°14'611.7
2017-Dec-07 00:30N 34°26' E 135°09'612.0
2017-Dec-07 00:00N 34°22' E 135°04'612.7
2017-Dec-06 23:30N 34°17' E 134°59'611.8
2017-Dec-06 23:00N 34°11' E 134°60'611.8
2017-Dec-06 22:30N 34°05' E 135°00'611.7
2017-Dec-06 22:01N 33°59' E 135°02'  
2017-Dec-04 07:35N 34°40' E 136°50'112.0
2017-Dec-04 07:31N 34°41' E 136°50'612.2
2017-Dec-04 07:00N 34°47' E 136°46'612.1
2017-Dec-04 06:30N 34°52' E 136°44'611.6
2017-Dec-04 06:00N 34°58' E 136°41'2 1.6
2017-Dec-04 04:48N 34°58' E 136°39'0 0.0
2017-Dec-04 04:30N 34°58' E 136°39'0 0.0
2017-Dec-04 03:54N 34°58' E 136°39'0 0.0
2017-Dec-04 03:30N 34°58' E 136°39'0 0.0
2017-Dec-04 03:00N 34°58' E 136°39'0 0.0
2017-Dec-04 02:24N 34°58' E 136°39'0 0.0
2017-Dec-04 01:54N 34°58' E 136°39'0 0.0
2017-Dec-04 01:00N 34°58' E 136°39'0 0.0
2017-Dec-04 00:30N 34°58' E 136°39'0 0.0
2017-Dec-04 00:00N 34°58' E 136°39'0 0.0
2017-Dec-03 23:31N 34°58' E 136°39'1 0.9
2017-Dec-03 22:59N 34°58' E 136°39'0 0.0
2017-Dec-03 22:29N 34°58' E 136°39'0 0.0
2017-Dec-03 21:59N 34°58' E 136°39'0 0.0
2017-Dec-03 21:29N 34°58' E 136°39'0 0.0
2017-Dec-03 20:59N 34°58' E 136°39'0 0.0
2017-Dec-03 20:29N 34°58' E 136°39'0 0.0
2017-Dec-03 19:56N 34°58' E 136°39'0 0.0
2017-Dec-03 19:29N 34°58' E 136°39'0 0.0
2017-Dec-03 18:59N 34°58' E 136°39'0 0.0
2017-Dec-03 18:29N 34°58' E 136°39'0 0.0
2017-Dec-03 17:59N 34°58' E 136°39'0 0.0
2017-Dec-03 17:29N 34°58' E 136°39'0 0.0
2017-Dec-03 16:59N 34°58' E 136°39'0 0.0
2017-Dec-03 16:29N 34°58' E 136°39'0 0.0
2017-Dec-03 15:59N 34°58' E 136°39'0 0.0
2017-Dec-03 15:29N 34°58' E 136°39'0 0.0
2017-Dec-03 14:59N 34°58' E 136°39'0 0.0
2017-Dec-03 14:29N 34°58' E 136°39'0 0.0
2017-Dec-03 13:59N 34°58' E 136°39'0 0.0
2017-Dec-03 13:29N 34°58' E 136°39'0 0.0
2017-Dec-03 12:59N 34°58' E 136°39'0 0.0
2017-Dec-03 12:29N 34°58' E 136°39'0 0.0
2017-Dec-03 11:53N 34°58' E 136°39'0 0.0
2017-Dec-03 11:29N 34°58' E 136°39'0 0.0
2017-Dec-03 10:59N 34°58' E 136°39'0 0.0
2017-Dec-03 10:23N 34°58' E 136°39'0 0.0
2017-Dec-03 09:59N 34°58' E 136°39'0 0.0
2017-Dec-03 09:29N 34°58' E 136°39'0 0.0
2017-Dec-03 08:59N 34°58' E 136°39'0 0.0
2017-Dec-03 08:29N 34°58' E 136°39'0 0.0
2017-Dec-03 07:59N 34°58' E 136°39'0 0.1
2017-Dec-03 07:29N 34°58' E 136°39'0 0.0
2017-Dec-03 06:59N 34°58' E 136°39'0 0.0
2017-Dec-03 06:29N 34°58' E 136°39'0 0.0
2017-Dec-03 05:59N 34°58' E 136°39'0 0.1
2017-Dec-03 05:29N 34°58' E 136°39'0 0.2
2017-Dec-03 05:00N 34°58' E 136°39'2 4.8
2017-Dec-03 04:30N 34°56' E 136°41'611.3
2017-Dec-03 04:00N 34°51' E 136°44'611.3
2017-Dec-03 03:30N 34°46' E 136°48'611.2
2017-Dec-03 02:58N 34°41' E 136°52'1710.1
2017-Dec-03 01:14N 34°33' E 137°10'311.0
2017-Dec-03 00:56N 34°33' E 137°14'610.7
2017-Dec-03 00:24N 34°33' E 137°21'3511.1
2017-Dec-02 21:14N 34°33' E 138°04'511.3
2017-Dec-02 20:47N 34°33' E 138°10'310.9
2017-Dec-02 20:28N 34°33' E 138°14'1510.8
2017-Dec-02 19:05N 34°33' E 138°32'310.6
2017-Dec-02 18:50N 34°33' E 138°36'1210.4
2017-Dec-02 17:40N 34°32' E 138°50'210.4
2017-Dec-02 17:30N 34°33' E 138°52'810.4
2017-Dec-02 16:44N 34°36' E 139°01'312.5
2017-Dec-02 16:30N 34°39' E 139°02'912.0
2017-Dec-02 15:44N 34°47' E 139°08'611.2
2017-Dec-02 15:14N 34°51' E 139°12'1110.6
2017-Dec-02 14:12N 34°58' E 139°22'2 9.9
2017-Dec-02 13:59N 34°59' E 139°24'5 9.4
2017-Dec-02 13:30N 35°02' E 139°29'510.2
2017-Dec-02 13:00N 35°04' E 139°34'611.2
2017-Dec-02 12:30N 35°07' E 139°40'612.8
2017-Dec-02 12:00N 35°12' E 139°46'611.6
2017-Dec-02 11:30N 35°17' E 139°44'611.4
2017-Dec-02 11:00N 35°23' E 139°42'611.7
2017-Dec-02 10:31N 35°27' E 139°47'611.9
2017-Dec-02 10:00N 35°30' E 139°54'611.7
2017-Dec-02 09:30N 35°33' E 140°00'4 8.2
2017-Dec-02 09:00N 35°33' E 140°05'0 0.1
2017-Dec-02 08:30N 35°33' E 140°05'0 0.0
2017-Dec-02 01:51N 35°33' E 140°05'0 0.0
2017-Dec-02 01:27N 35°33' E 140°05'2 4.8
2017-Dec-02 01:00N 35°34' E 140°03'510.5
2017-Dec-02 00:30N 35°31' E 139°57'510.6
2017-Dec-02 00:00N 35°28' E 139°52'510.3
2017-Dec-01 23:31N 35°25' E 139°47'510.0
2017-Dec-01 23:01N 35°20' E 139°45'5 9.2
2017-Dec-01 22:30N 35°16' E 139°46'510.0
2017-Dec-01 22:00N 35°11' E 139°47'510.3
2017-Dec-01 21:31N 35°07' E 139°43'510.6
2017-Dec-01 21:01N 35°03' E 139°38'511.0
2017-Dec-01 20:30N 34°60' E 139°33'811.6
2017-Dec-01 19:47N 34°55' E 139°25'1311.4
2017-Dec-01 18:41N 34°47' E 139°13'211.2
2017-Dec-01 18:30N 34°45' E 139°11'611.2
2017-Dec-01 18:00N 34°41' E 139°07'711.2
2017-Dec-01 17:23N 34°36' E 139°01'410.2
2017-Dec-01 17:00N 34°33' E 138°58'  
Track history (hours):
 
Tides and Currents Weather Stations Pressure Air Temp Water Temp Dewpoint Dewpoint Depression Visibility Wind Speed Wind Dir Waves Ship Positions

Shin Puropan Maru

Last reported at 2017-Dec-11 16:58 UTC. Time now 2017-Dec-13 09:17 UTC.
Position N 34°31' E 135°20'.

Length 66 m; draft 4.5 m.

Type: Ship (hazmat cat A). MMSI: 431100348.

Date/timePositionNaut miles runAvg speedWind from/ knotsBaromVisibWave heightAir tempDewpointWater temp
2017-Dec-11 16:58N 34°31' E 135°20'0 0.0
2017-Dec-11 16:25N 34°31' E 135°20'0 0.0
2017-Dec-11 15:58N 34°31' E 135°20'0 0.1
2017-Dec-11 15:28N 34°31' E 135°20'0 0.0
2017-Dec-11 14:58N 34°31' E 135°20'0 0.0
2017-Dec-11 14:28N 34°31' E 135°20'0 0.0
2017-Dec-11 13:58N 34°31' E 135°20'0 0.0
2017-Dec-11 13:28N 34°31' E 135°20'0 0.0
2017-Dec-11 12:58N 34°31' E 135°20'0 0.0
2017-Dec-11 12:28N 34°31' E 135°20'0 0.0
2017-Dec-11 11:58N 34°31' E 135°20'0 0.0
2017-Dec-11 11:25N 34°31' E 135°20'1 1.8
2017-Dec-11 11:00N 34°32' E 135°20'3 5.9
2017-Dec-11 10:30N 34°35' E 135°20'3 6.0
2017-Dec-11 10:00N 34°36' E 135°23'3 5.8
2017-Dec-11 09:30N 34°34' E 135°26'0 0.1
2017-Dec-11 09:00N 34°34' E 135°26'0 0.0
2017-Dec-11 08:30N 34°34' E 135°26'0 0.0
2017-Dec-11 08:00N 34°34' E 135°26'0 0.0
2017-Dec-11 07:30N 34°34' E 135°26'0 0.0
2017-Dec-11 07:00N 34°34' E 135°26'0 0.0
2017-Dec-11 06:30N 34°34' E 135°26'0 0.8
2017-Dec-11 06:00N 34°35' E 135°26'1 1.5
2017-Dec-11 05:30N 34°35' E 135°25'3 5.5
2017-Dec-11 05:00N 34°36' E 135°22'1 1.6
2017-Dec-11 04:30N 34°36' E 135°21'3 5.9
2017-Dec-11 04:00N 34°34' E 135°19'510.9
2017-Dec-11 03:30N 34°30' E 135°14'611.5
2017-Dec-11 03:00N 34°26' E 135°09'611.5
2017-Dec-11 02:30N 34°22' E 135°04'611.5
2017-Dec-11 02:00N 34°17' E 134°60'5 9.9
2017-Dec-11 01:30N 34°12' E 134°60'510.7
2017-Dec-11 01:00N 34°07' E 135°00'510.6
2017-Dec-11 00:30N 34°02' E 135°01'610.8
2017-Dec-10 23:58N 33°56' E 135°02'101 7.2
2017-Dec-10 09:52N 34°38' E 136°53'511.0
2017-Dec-10 09:27N 34°42' E 136°49'511.4
2017-Dec-10 09:00N 34°46' E 136°47'611.1
2017-Dec-10 08:30N 34°51' E 136°44'511.0
2017-Dec-10 08:00N 34°56' E 136°41'3 5.0
2017-Dec-10 07:29N 34°58' E 136°39'0 0.0
2017-Dec-10 06:59N 34°58' E 136°39'0 0.0
2017-Dec-10 06:05N 34°58' E 136°39'0 0.0
2017-Dec-10 05:59N 34°58' E 136°39'0 0.0
2017-Dec-10 05:23N 34°58' E 136°39'0 0.0
2017-Dec-10 04:47N 34°58' E 136°39'0 0.0
2017-Dec-10 04:29N 34°58' E 136°39'0 0.0
2017-Dec-10 03:59N 34°58' E 136°39'0 0.0
2017-Dec-10 03:30N 34°58' E 136°39'1 1.0
2017-Dec-10 02:58N 34°58' E 136°39'0 0.1
2017-Dec-10 02:28N 34°58' E 136°39'0 0.0
2017-Dec-10 01:58N 34°58' E 136°39'0 0.0
2017-Dec-10 01:28N 34°58' E 136°39'2 4.7
2017-Dec-10 01:00N 34°56' E 136°41'611.7
2017-Dec-10 00:30N 34°51' E 136°44'611.8
2017-Dec-10 00:00N 34°45' E 136°48'612.0
2017-Dec-09 23:30N 34°40' E 136°51'612.6
2017-Dec-09 23:00N 34°36' E 136°57'612.5
2017-Dec-09 22:30N 34°32' E 137°03'107 8.8
2017-Dec-09 10:20N 33°53' E 135°02'412.9
2017-Dec-09 10:00N 33°58' E 135°01'612.5
2017-Dec-09 09:30N 34°04' E 135°00'612.8
2017-Dec-09 09:00N 34°10' E 134°59'713.1
2017-Dec-09 08:30N 34°17' E 134°59'611.4
2017-Dec-09 08:00N 34°22' E 135°01'612.0
2017-Dec-09 07:30N 34°26' E 135°07'612.0
2017-Dec-09 07:00N 34°29' E 135°12'611.7
2017-Dec-09 06:30N 34°33' E 135°18'511.0
2017-Dec-09 06:00N 34°36' E 135°23'3 5.6
2017-Dec-09 05:29N 34°34' E 135°26'0 0.0
2017-Dec-09 04:59N 34°34' E 135°26'0 0.0
2017-Dec-09 04:29N 34°34' E 135°26'0 0.0
2017-Dec-09 03:56N 34°34' E 135°26'0 0.0
2017-Dec-09 03:31N 34°34' E 135°26'3 5.3
2017-Dec-09 03:01N 34°36' E 135°24'611.2
2017-Dec-09 02:30N 34°33' E 135°18'611.7
2017-Dec-09 02:00N 34°29' E 135°13'611.9
2017-Dec-09 01:30N 34°25' E 135°08'612.3
2017-Dec-09 01:00N 34°20' E 135°03'611.6
2017-Dec-09 00:30N 34°15' E 134°59'510.6
2017-Dec-09 00:00N 34°10' E 135°00'510.9
2017-Dec-08 23:31N 34°05' E 135°01'510.8
2017-Dec-08 23:00N 33°59' E 135°01'99 7.1
2017-Dec-08 08:58N 34°39' E 136°51'511.6
2017-Dec-08 08:30N 34°44' E 136°48'611.6
2017-Dec-08 08:01N 34°49' E 136°45'611.4
2017-Dec-08 07:31N 34°54' E 136°42'4 8.7
2017-Dec-08 07:00N 34°58' E 136°39'1 2.3
2017-Dec-08 06:28N 34°57' E 136°38'0 0.0
2017-Dec-08 05:58N 34°57' E 136°38'0 0.0
2017-Dec-08 05:28N 34°57' E 136°38'0 0.0
2017-Dec-08 04:58N 34°57' E 136°38'0 0.0
2017-Dec-08 04:28N 34°57' E 136°38'0 0.0
2017-Dec-08 03:58N 34°57' E 136°38'0 0.0
2017-Dec-08 03:28N 34°57' E 136°38'0 0.0
2017-Dec-08 02:58N 34°57' E 136°38'0 0.2
2017-Dec-08 02:30N 34°57' E 136°38'2 4.4
2017-Dec-08 02:01N 34°56' E 136°41'4 7.5
2017-Dec-08 01:31N 34°53' E 136°42'510.6
2017-Dec-08 01:00N 34°47' E 136°41'3 5.0
2017-Dec-08 00:30N 34°45' E 136°43'2 5.0
2017-Dec-08 00:00N 34°44' E 136°46'4 9.0
2017-Dec-07 23:31N 34°41' E 136°50'811.6
2017-Dec-07 22:47N 34°36' E 136°58'412.7
2017-Dec-07 22:30N 34°33' E 137°01'107 8.8
2017-Dec-07 10:22N 33°52' E 135°02'512.1
2017-Dec-07 09:58N 33°57' E 135°01'612.1
2017-Dec-07 09:31N 34°02' E 135°00'612.3
2017-Dec-07 09:00N 34°09' E 134°60'612.8
2017-Dec-07 08:31N 34°15' E 134°59'612.5
2017-Dec-07 08:01N 34°21' E 134°60'612.5
2017-Dec-07 07:30N 34°25' E 135°06'612.6
2017-Dec-07 07:01N 34°29' E 135°12'611.8
2017-Dec-07 06:30N 34°33' E 135°17'611.0
2017-Dec-07 06:00N 34°36' E 135°22'3 6.9
2017-Dec-07 05:30N 34°34' E 135°26'0 0.0
2017-Dec-07 04:59N 34°34' E 135°26'0 0.0
2017-Dec-07 04:29N 34°34' E 135°26'0 0.0
2017-Dec-07 03:59N 34°34' E 135°26'0 0.0
2017-Dec-07 03:27N 34°34' E 135°26'0 0.0
2017-Dec-07 02:59N 34°34' E 135°26'0 0.0
2017-Dec-07 02:30N 34°34' E 135°26'2 3.7
2017-Dec-07 02:01N 34°36' E 135°25'5 9.9
2017-Dec-07 01:30N 34°34' E 135°19'611.5
2017-Dec-07 01:00N 34°30' E 135°14'611.7
2017-Dec-07 00:30N 34°26' E 135°09'612.0
2017-Dec-07 00:00N 34°22' E 135°04'612.7
2017-Dec-06 23:30N 34°17' E 134°59'611.8
2017-Dec-06 23:00N 34°11' E 134°60'611.8
2017-Dec-06 22:30N 34°05' E 135°00'611.7
2017-Dec-06 22:01N 33°59' E 135°02'  
2017-Dec-04 07:35N 34°40' E 136°50'112.0
2017-Dec-04 07:31N 34°41' E 136°50'612.2
2017-Dec-04 07:00N 34°47' E 136°46'612.1
2017-Dec-04 06:30N 34°52' E 136°44'611.6
2017-Dec-04 06:00N 34°58' E 136°41'2 1.6
2017-Dec-04 04:48N 34°58' E 136°39'0 0.0
2017-Dec-04 04:30N 34°58' E 136°39'0 0.0
2017-Dec-04 03:54N 34°58' E 136°39'0 0.0
2017-Dec-04 03:30N 34°58' E 136°39'0 0.0
2017-Dec-04 03:00N 34°58' E 136°39'0 0.0
2017-Dec-04 02:24N 34°58' E 136°39'0 0.0
2017-Dec-04 01:54N 34°58' E 136°39'0 0.0
2017-Dec-04 01:00N 34°58' E 136°39'0 0.0
2017-Dec-04 00:30N 34°58' E 136°39'0 0.0
2017-Dec-04 00:00N 34°58' E 136°39'0 0.0
2017-Dec-03 23:31N 34°58' E 136°39'1 0.9
2017-Dec-03 22:59N 34°58' E 136°39'0 0.0
2017-Dec-03 22:29N 34°58' E 136°39'0 0.0
2017-Dec-03 21:59N 34°58' E 136°39'0 0.0
2017-Dec-03 21:29N 34°58' E 136°39'0 0.0
2017-Dec-03 20:59N 34°58' E 136°39'0 0.0
2017-Dec-03 20:29N 34°58' E 136°39'0 0.0
2017-Dec-03 19:56N 34°58' E 136°39'0 0.0
2017-Dec-03 19:29N 34°58' E 136°39'0 0.0
2017-Dec-03 18:59N 34°58' E 136°39'0 0.0
2017-Dec-03 18:29N 34°58' E 136°39'0 0.0
2017-Dec-03 17:59N 34°58' E 136°39'0 0.0
2017-Dec-03 17:29N 34°58' E 136°39'0 0.0
2017-Dec-03 16:59N 34°58' E 136°39'0 0.0
2017-Dec-03 16:29N 34°58' E 136°39'0 0.0
2017-Dec-03 15:59N 34°58' E 136°39'0 0.0
2017-Dec-03 15:29N 34°58' E 136°39'0 0.0
2017-Dec-03 14:59N 34°58' E 136°39'0 0.0
2017-Dec-03 14:29N 34°58' E 136°39'0 0.0
2017-Dec-03 13:59N 34°58' E 136°39'0 0.0
2017-Dec-03 13:29N 34°58' E 136°39'0 0.0
2017-Dec-03 12:59N 34°58' E 136°39'0 0.0
2017-Dec-03 12:29N 34°58' E 136°39'0 0.0
2017-Dec-03 11:53N 34°58' E 136°39'0 0.0
2017-Dec-03 11:29N 34°58' E 136°39'0 0.0
2017-Dec-03 10:59N 34°58' E 136°39'0 0.0
2017-Dec-03 10:23N 34°58' E 136°39'0 0.0
2017-Dec-03 09:59N 34°58' E 136°39'0 0.0
2017-Dec-03 09:29N 34°58' E 136°39'0 0.0
2017-Dec-03 08:59N 34°58' E 136°39'0 0.0
2017-Dec-03 08:29N 34°58' E 136°39'0 0.0
2017-Dec-03 07:59N 34°58' E 136°39'0 0.1
2017-Dec-03 07:29N 34°58' E 136°39'0 0.0
2017-Dec-03 06:59N 34°58' E 136°39'0 0.0
2017-Dec-03 06:29N 34°58' E 136°39'0 0.0
2017-Dec-03 05:59N 34°58' E 136°39'0 0.1
2017-Dec-03 05:29N 34°58' E 136°39'0 0.2
2017-Dec-03 05:00N 34°58' E 136°39'2 4.8
2017-Dec-03 04:30N 34°56' E 136°41'611.3
2017-Dec-03 04:00N 34°51' E 136°44'611.3
2017-Dec-03 03:30N 34°46' E 136°48'611.2
2017-Dec-03 02:58N 34°41' E 136°52'1710.1
2017-Dec-03 01:14N 34°33' E 137°10'311.0
2017-Dec-03 00:56N 34°33' E 137°14'610.7
2017-Dec-03 00:24N 34°33' E 137°21'3511.1
2017-Dec-02 21:14N 34°33' E 138°04'511.3
2017-Dec-02 20:47N 34°33' E 138°10'310.9
2017-Dec-02 20:28N 34°33' E 138°14'1510.8
2017-Dec-02 19:05N 34°33' E 138°32'310.6
2017-Dec-02 18:50N 34°33' E 138°36'1210.4
2017-Dec-02 17:40N 34°32' E 138°50'210.4
2017-Dec-02 17:30N 34°33' E 138°52'810.4
2017-Dec-02 16:44N 34°36' E 139°01'312.5
2017-Dec-02 16:30N 34°39' E 139°02'912.0
2017-Dec-02 15:44N 34°47' E 139°08'611.2
2017-Dec-02 15:14N 34°51' E 139°12'1110.6
2017-Dec-02 14:12N 34°58' E 139°22'2 9.9
2017-Dec-02 13:59N 34°59' E 139°24'5 9.4
2017-Dec-02 13:30N 35°02' E 139°29'510.2
2017-Dec-02 13:00N 35°04' E 139°34'611.2
2017-Dec-02 12:30N 35°07' E 139°40'612.8
2017-Dec-02 12:00N 35°12' E 139°46'611.6
2017-Dec-02 11:30N 35°17' E 139°44'611.4
2017-Dec-02 11:00N 35°23' E 139°42'611.7
2017-Dec-02 10:31N 35°27' E 139°47'611.9
2017-Dec-02 10:00N 35°30' E 139°54'611.7
2017-Dec-02 09:30N 35°33' E 140°00'4 8.2
2017-Dec-02 09:00N 35°33' E 140°05'0 0.1
2017-Dec-02 08:30N 35°33' E 140°05'0 0.0
2017-Dec-02 01:51N 35°33' E 140°05'0 0.0
2017-Dec-02 01:27N 35°33' E 140°05'2 4.8
2017-Dec-02 01:00N 35°34' E 140°03'510.5
2017-Dec-02 00:30N 35°31' E 139°57'510.6
2017-Dec-02 00:00N 35°28' E 139°52'510.3
2017-Dec-01 23:31N 35°25' E 139°47'510.0
2017-Dec-01 23:01N 35°20' E 139°45'5 9.2
2017-Dec-01 22:30N 35°16' E 139°46'510.0
2017-Dec-01 22:00N 35°11' E 139°47'510.3
2017-Dec-01 21:31N 35°07' E 139°43'510.6
2017-Dec-01 21:01N 35°03' E 139°38'511.0
2017-Dec-01 20:30N 34°60' E 139°33'811.6
2017-Dec-01 19:47N 34°55' E 139°25'1311.4
2017-Dec-01 18:41N 34°47' E 139°13'211.2
2017-Dec-01 18:30N 34°45' E 139°11'611.2
2017-Dec-01 18:00N 34°41' E 139°07'711.2
2017-Dec-01 17:23N 34°36' E 139°01'410.2
2017-Dec-01 17:00N 34°33' E 138°58'  

Dump ship's entire track history